createdAt,value
2024-03-19T00:01:20.312Z,28.10
2024-03-19T00:03:56.238Z,28.80
2024-03-19T00:06:32.820Z,24.70
2024-03-19T00:09:09.676Z,25.70
2024-03-19T00:11:48.618Z,21.00
2024-03-19T00:14:25.474Z,22.90
2024-03-19T00:17:01.674Z,24.00
2024-03-19T00:19:38.414Z,24.10
2024-03-19T00:22:13.831Z,25.50
2024-03-19T00:24:50.574Z,21.40
2024-03-19T00:27:27.804Z,23.40
2024-03-19T00:30:04.385Z,20.70
2024-03-19T00:32:40.108Z,25.70
2024-03-19T00:35:17.204Z,25.50
2024-03-19T00:37:55.182Z,25.40
2024-03-19T00:40:30.934Z,21.60
2024-03-19T00:43:07.010Z,20.40
2024-03-19T00:45:44.344Z,22.50
2024-03-19T00:48:21.049Z,21.10
2024-03-19T00:50:57.080Z,21.70
2024-03-19T00:53:34.390Z,22.30
2024-03-19T00:56:13.575Z,21.90
2024-03-19T00:58:49.233Z,20.50
2024-03-19T01:01:27.390Z,21.60
2024-03-19T01:04:09.425Z,18.80
2024-03-19T01:06:45.020Z,19.40
2024-03-19T01:09:21.360Z,22.80
2024-03-19T01:11:57.062Z,24.40
2024-03-19T01:14:32.297Z,21.00
2024-03-19T01:17:13.332Z,22.10
2024-03-19T01:19:50.081Z,20.30
2024-03-19T01:22:29.355Z,23.40
2024-03-19T01:25:07.441Z,20.70
2024-03-19T01:27:43.820Z,25.30
2024-03-19T01:30:22.414Z,22.50
2024-03-19T01:32:58.552Z,24.30
2024-03-19T01:35:37.453Z,22.90
2024-03-19T01:38:13.717Z,28.10
2024-03-19T01:40:54.492Z,24.50
2024-03-19T01:43:30.270Z,24.60
2024-03-19T01:46:33.753Z,24.30
2024-03-19T01:49:09.914Z,23.20
2024-03-19T01:51:46.213Z,24.20
2024-03-19T01:54:23.221Z,23.70
2024-03-19T01:57:01.324Z,24.40
2024-03-19T01:59:40.476Z,23.50
2024-03-19T02:02:39.036Z,25.90
2024-03-19T02:05:16.682Z,29.30
2024-03-19T02:07:52.051Z,29.80
2024-03-19T02:10:30.178Z,28.80
2024-03-19T02:13:06.147Z,25.70
2024-03-19T02:15:41.428Z,26.40
2024-03-19T02:18:18.308Z,23.70
2024-03-19T02:20:54.023Z,25.50
2024-03-19T02:23:30.024Z,28.40
2024-03-19T02:26:05.499Z,28.90
2024-03-19T02:28:43.041Z,29.30
2024-03-19T02:31:18.993Z,27.80
2024-03-19T02:33:54.787Z,31.10
2024-03-19T02:36:31.654Z,30.60
2024-03-19T02:39:08.530Z,32.80
2024-03-19T02:41:44.230Z,32.70
2024-03-19T02:44:19.845Z,29.90
2024-03-19T02:46:57.166Z,28.60
2024-03-19T02:49:33.036Z,32.60
2024-03-19T02:52:10.190Z,30.00
2024-03-19T02:54:45.642Z,26.20
2024-03-19T02:57:23.054Z,30.80
2024-03-19T02:59:59.195Z,32.10
2024-03-19T03:02:39.038Z,29.80
2024-03-19T03:05:16.054Z,30.20
2024-03-19T03:07:50.906Z,30.60
2024-03-19T03:10:26.779Z,33.80
2024-03-19T03:13:02.632Z,30.10
2024-03-19T03:15:41.240Z,29.80
2024-03-19T03:18:19.477Z,30.00
2024-03-19T03:20:55.564Z,29.80
2024-03-19T03:23:32.116Z,32.30
2024-03-19T03:26:10.630Z,30.50
2024-03-19T03:28:47.458Z,33.40
2024-03-19T03:31:23.119Z,33.00
2024-03-19T03:33:58.890Z,33.50
2024-03-19T03:36:33.989Z,33.90
2024-03-19T03:39:11.560Z,31.20
2024-03-19T03:41:51.465Z,33.60
2024-03-19T03:44:27.681Z,30.70
2024-03-19T03:47:06.437Z,31.20
2024-03-19T03:49:42.278Z,29.20
2024-03-19T03:52:18.087Z,26.80
2024-03-19T03:54:54.758Z,30.40
2024-03-19T03:57:31.339Z,23.50
2024-03-19T04:00:09.967Z,25.90
2024-03-19T04:02:46.369Z,25.00
2024-03-19T04:05:21.503Z,27.60
2024-03-19T04:07:57.766Z,29.00
2024-03-19T04:10:33.391Z,32.50
2024-03-19T04:13:10.396Z,30.90
2024-03-19T04:15:46.528Z,27.60
2024-03-19T04:18:24.964Z,28.60
2024-03-19T04:21:04.352Z,28.10
2024-03-19T04:23:42.835Z,26.80
2024-03-19T04:26:18.567Z,26.50
2024-03-19T04:28:54.983Z,26.60
2024-03-19T04:31:30.677Z,24.60
2024-03-19T04:34:06.567Z,27.70
2024-03-19T04:36:43.304Z,24.40
2024-03-19T04:39:24.351Z,23.10
2024-03-19T04:42:00.996Z,20.00
2024-03-19T04:44:37.229Z,21.50
2024-03-19T04:47:17.940Z,19.60
2024-03-19T04:49:54.205Z,20.80
2024-03-19T04:52:30.742Z,21.40
2024-03-19T04:55:06.362Z,19.40
2024-03-19T04:57:43.689Z,21.90
2024-03-19T05:00:22.725Z,22.40
2024-03-19T05:02:59.849Z,25.60
2024-03-19T05:05:35.632Z,22.00
2024-03-19T05:08:12.626Z,25.50
2024-03-19T05:10:50.252Z,23.00
2024-03-19T05:13:26.016Z,23.90
2024-03-19T05:16:01.299Z,28.20
2024-03-19T05:18:38.855Z,26.50
2024-03-19T05:21:15.158Z,25.40
2024-03-19T05:23:51.268Z,24.10
2024-03-19T05:26:28.509Z,26.40
2024-03-19T05:29:04.290Z,23.90
2024-03-19T05:31:43.382Z,28.30
2024-03-19T05:34:19.162Z,27.90
2024-03-19T05:36:54.872Z,25.20
2024-03-19T05:39:31.766Z,22.40
2024-03-19T05:42:08.477Z,22.20
2024-03-19T05:44:50.660Z,24.10
2024-03-19T05:47:26.787Z,22.60
2024-03-19T05:50:02.408Z,29.10
2024-03-19T05:52:38.215Z,32.80
2024-03-19T05:55:15.916Z,42.30
2024-03-19T05:57:53.859Z,34.70
2024-03-19T06:00:31.096Z,38.20
2024-03-19T06:03:11.459Z,38.10
2024-03-19T06:05:48.362Z,35.50
2024-03-19T06:08:24.068Z,31.40
2024-03-19T06:11:00.112Z,25.20
2024-03-19T06:13:36.337Z,24.20
2024-03-19T06:16:14.052Z,33.10
2024-03-19T06:18:50.569Z,29.90
2024-03-19T06:21:26.142Z,32.30
2024-03-19T06:24:05.142Z,32.70
2024-03-19T06:26:42.360Z,29.10
2024-03-19T06:29:23.249Z,31.70
2024-03-19T06:31:59.569Z,32.00
2024-03-19T06:34:34.788Z,33.00
2024-03-19T06:37:13.499Z,35.50
2024-03-19T06:39:48.388Z,37.30
2024-03-19T06:42:27.533Z,38.10
2024-03-19T06:45:03.468Z,41.00
2024-03-19T06:47:39.727Z,37.80
2024-03-19T06:50:20.366Z,36.80
2024-03-19T06:52:56.763Z,41.50
2024-03-19T06:55:34.516Z,41.80
2024-03-19T06:58:10.647Z,43.10
2024-03-19T07:00:50.932Z,44.00
2024-03-19T07:03:26.534Z,49.30
2024-03-19T07:06:02.439Z,46.40
2024-03-19T07:08:42.300Z,50.70
2024-03-19T07:11:19.613Z,48.60
2024-03-19T07:13:59.007Z,58.00
2024-03-19T07:16:34.669Z,47.90
2024-03-19T07:19:10.709Z,49.60
2024-03-19T07:21:46.278Z,54.30
2024-03-19T07:24:22.310Z,50.50
2024-03-19T07:27:06.764Z,54.90
2024-03-19T07:29:44.391Z,53.50
2024-03-19T07:32:23.280Z,49.80
2024-03-19T07:34:59.544Z,50.60
2024-03-19T07:37:37.648Z,56.50
2024-03-19T07:40:21.885Z,54.10
2024-03-19T07:42:57.910Z,47.70
2024-03-19T07:45:33.953Z,51.50
2024-03-19T07:48:14.211Z,54.30
2024-03-19T07:50:51.680Z,52.10
2024-03-19T07:53:28.390Z,52.40
2024-03-19T07:56:05.308Z,52.70
2024-03-19T07:58:40.546Z,58.00
2024-03-19T08:01:15.581Z,61.40
2024-03-19T08:03:54.673Z,59.20
2024-03-19T08:06:30.384Z,58.70
2024-03-19T08:09:06.187Z,60.30
2024-03-19T08:11:41.880Z,62.00
2024-03-19T08:14:17.230Z,62.60
2024-03-19T08:16:53.498Z,60.20
2024-03-19T08:19:30.309Z,62.30
2024-03-19T08:22:07.072Z,64.80
2024-03-19T08:24:45.328Z,66.60
2024-03-19T08:27:20.861Z,62.70
2024-03-19T08:30:00.554Z,58.00
2024-03-19T08:32:36.550Z,58.30
2024-03-19T08:35:17.311Z,60.00
2024-03-19T08:37:52.897Z,60.30
2024-03-19T08:40:28.726Z,56.20
2024-03-19T08:43:07.143Z,58.90
2024-03-19T08:45:45.309Z,57.30
2024-03-19T08:48:20.940Z,57.60
2024-03-19T08:50:58.473Z,61.40
2024-03-19T08:53:35.527Z,57.80
2024-03-19T08:56:13.674Z,58.10
2024-03-19T08:58:49.875Z,60.30
2024-03-19T09:01:25.116Z,55.50
2024-03-19T09:04:00.881Z,54.60
2024-03-19T09:06:36.895Z,52.60
2024-03-19T09:09:16.309Z,49.60
2024-03-19T09:11:53.290Z,49.40
2024-03-19T09:14:28.513Z,46.70
2024-03-19T09:17:04.034Z,49.10
2024-03-19T09:19:47.940Z,55.00
2024-03-19T09:22:26.105Z,57.50
2024-03-19T09:25:03.310Z,57.00
2024-03-19T09:27:43.731Z,54.20
2024-03-19T09:30:21.949Z,52.20
2024-03-19T09:32:57.528Z,50.00
2024-03-19T09:35:34.411Z,54.80
2024-03-19T09:38:11.895Z,50.80
2024-03-19T09:40:55.976Z,52.40
2024-03-19T09:43:35.894Z,51.60
2024-03-19T09:46:16.475Z,61.80
2024-03-19T09:48:52.748Z,57.20
2024-03-19T09:51:29.778Z,55.50
2024-03-19T09:54:09.589Z,54.40
2024-03-19T09:56:49.093Z,56.00
2024-03-19T09:59:24.893Z,60.80
2024-03-19T10:02:01.401Z,53.10
2024-03-19T10:04:38.204Z,54.00
2024-03-19T10:07:13.795Z,53.10
2024-03-19T10:09:53.105Z,52.80
2024-03-19T10:12:28.679Z,55.30
2024-03-19T10:15:08.881Z,57.40
2024-03-19T10:17:46.187Z,55.40
2024-03-19T10:20:25.282Z,55.70
2024-03-19T10:23:01.113Z,50.20
2024-03-19T10:25:37.925Z,50.60
2024-03-19T10:28:17.886Z,52.80
2024-03-19T10:30:56.215Z,55.50
2024-03-19T10:33:34.700Z,53.40
2024-03-19T10:36:25.437Z,52.60
2024-03-19T10:39:02.648Z,49.50
2024-03-19T10:41:38.477Z,50.10
2024-03-19T10:44:21.202Z,49.80
2024-03-19T10:46:57.702Z,48.00
2024-03-19T10:49:35.495Z,54.30
2024-03-19T10:52:20.406Z,49.80
2024-03-19T10:54:57.700Z,48.10
2024-03-19T10:57:36.373Z,51.10
2024-03-19T11:00:28.456Z,45.00
2024-03-19T11:03:05.667Z,50.30
2024-03-19T11:05:43.582Z,50.90
2024-03-19T11:08:24.256Z,47.70
2024-03-19T11:11:13.128Z,47.40
2024-03-19T11:13:56.873Z,47.90
2024-03-19T11:16:43.541Z,49.10
2024-03-19T11:19:35.783Z,50.80
2024-03-19T11:22:12.645Z,43.30
2024-03-19T11:24:48.524Z,49.40
2024-03-19T11:27:35.069Z,45.80
2024-03-19T11:30:21.734Z,47.40
2024-03-19T11:33:00.080Z,50.00
2024-03-19T11:35:36.417Z,45.90
2024-03-19T11:38:21.486Z,43.90
2024-03-19T11:40:57.032Z,48.60
2024-03-19T11:43:34.725Z,48.30
2024-03-19T11:46:14.913Z,49.80
2024-03-19T11:48:56.056Z,46.90
2024-03-19T11:51:30.731Z,48.90
2024-03-19T11:54:12.746Z,47.20
2024-03-19T11:56:52.624Z,49.60
2024-03-19T11:59:32.680Z,49.90
2024-03-19T12:02:13.235Z,47.20
2024-03-19T12:04:50.044Z,49.80
2024-03-19T12:07:27.381Z,41.90
2024-03-19T12:10:13.313Z,42.10
2024-03-19T12:12:49.364Z,48.30
2024-03-19T12:15:25.960Z,51.40
2024-03-19T12:18:03.198Z,51.00
2024-03-19T12:20:44.270Z,50.20
2024-03-19T12:23:21.665Z,43.80
2024-03-19T12:25:58.226Z,42.60
2024-03-19T12:28:35.056Z,44.10
2024-03-19T12:31:23.563Z,42.70
2024-03-19T12:34:17.370Z,45.90
2024-03-19T12:36:54.824Z,41.30
2024-03-19T12:39:30.857Z,44.00
2024-03-19T12:42:11.563Z,43.20
2024-03-19T12:44:51.627Z,37.70
2024-03-19T12:47:27.786Z,42.90
2024-03-19T12:50:06.571Z,41.40
2024-03-19T12:52:42.236Z,41.90
2024-03-19T12:55:18.266Z,39.50
2024-03-19T12:57:55.835Z,39.80
2024-03-19T13:00:31.863Z,40.10
2024-03-19T13:03:08.915Z,41.20
2024-03-19T13:05:45.528Z,40.00
2024-03-19T13:08:21.438Z,41.70
2024-03-19T13:10:57.296Z,36.20
2024-03-19T13:13:33.368Z,42.40
2024-03-19T13:16:12.605Z,41.00
2024-03-19T13:18:48.297Z,43.40
2024-03-19T13:21:23.682Z,37.10
2024-03-19T13:24:00.064Z,35.50
2024-03-19T13:26:35.628Z,40.90
2024-03-19T13:29:14.041Z,41.70
2024-03-19T13:31:49.989Z,43.80
2024-03-19T13:34:25.788Z,41.10
2024-03-19T13:37:01.772Z,44.10
2024-03-19T13:39:37.185Z,41.70
2024-03-19T13:42:15.695Z,46.60
2024-03-19T13:44:52.618Z,39.40
2024-03-19T13:47:28.899Z,42.60
2024-03-19T13:50:06.211Z,42.10
2024-03-19T13:52:42.041Z,44.90
2024-03-19T13:55:22.293Z,43.30
2024-03-19T13:57:58.411Z,42.60
2024-03-19T14:00:34.632Z,41.90
2024-03-19T14:03:12.374Z,42.70
2024-03-19T14:05:51.023Z,46.20
2024-03-19T14:08:30.713Z,43.80
2024-03-19T14:11:06.387Z,45.20
2024-03-19T14:13:42.137Z,44.10
2024-03-19T14:16:17.975Z,50.20
2024-03-19T14:18:53.906Z,44.40
2024-03-19T14:21:31.708Z,48.50
2024-03-19T14:24:09.454Z,48.70
2024-03-19T14:26:44.655Z,48.00
2024-03-19T14:29:21.690Z,48.00
2024-03-19T14:31:59.276Z,40.50
2024-03-19T14:34:37.486Z,47.90
2024-03-19T14:37:14.444Z,49.20
2024-03-19T14:39:50.806Z,48.10
2024-03-19T14:42:27.838Z,43.90
2024-03-19T14:45:09.084Z,47.10
2024-03-19T14:47:45.230Z,51.40
2024-03-19T14:50:21.925Z,48.20
2024-03-19T14:52:58.769Z,50.80
2024-03-19T14:55:34.292Z,46.60
2024-03-19T14:58:09.912Z,45.70
2024-03-19T15:00:46.567Z,48.30
2024-03-19T15:03:24.432Z,47.60
2024-03-19T15:05:59.695Z,53.70
2024-03-19T15:08:37.085Z,50.90
2024-03-19T15:11:16.179Z,52.50
2024-03-19T15:13:52.437Z,57.20
2024-03-19T15:16:28.666Z,51.50
2024-03-19T15:19:08.165Z,56.60
2024-03-19T15:21:43.630Z,48.30
2024-03-19T15:24:19.290Z,49.50
2024-03-19T15:26:55.320Z,51.20
2024-03-19T15:29:34.978Z,52.90
2024-03-19T15:32:23.975Z,53.00
2024-03-19T15:35:11.031Z,54.50
2024-03-19T15:37:50.684Z,48.60
2024-03-19T15:40:28.212Z,51.70
2024-03-19T15:43:05.966Z,52.10
2024-03-19T15:45:43.112Z,55.40
2024-03-19T15:48:19.865Z,53.00
2024-03-19T15:50:57.676Z,56.00
2024-03-19T15:53:34.287Z,52.10
2024-03-19T15:56:15.309Z,56.20
2024-03-19T15:58:52.041Z,53.50
2024-03-19T16:01:29.026Z,56.80
2024-03-19T16:04:05.231Z,55.90
2024-03-19T16:06:40.883Z,51.80
2024-03-19T16:09:20.584Z,54.80
2024-03-19T16:11:56.520Z,57.40
2024-03-19T16:14:32.154Z,54.60
2024-03-19T16:17:07.837Z,53.00
2024-03-19T16:19:43.482Z,54.20
2024-03-19T16:22:19.242Z,60.80
2024-03-19T16:24:58.937Z,55.90
2024-03-19T16:27:51.738Z,51.50
2024-03-19T16:31:05.800Z,56.30
2024-03-19T16:34:16.014Z,55.10
2024-03-19T16:37:39.002Z,48.30
2024-03-19T16:41:03.460Z,46.70
2024-03-19T16:44:17.184Z,49.00
2024-03-19T16:47:28.848Z,49.50
2024-03-19T16:50:25.393Z,49.70
2024-03-19T16:53:32.178Z,46.30
2024-03-19T16:56:40.378Z,47.50
2024-03-19T16:59:33.196Z,50.10
2024-03-19T17:02:51.630Z,44.70
2024-03-19T17:05:44.182Z,41.10
2024-03-19T17:08:40.707Z,41.30
2024-03-19T17:11:30.616Z,40.60
2024-03-19T17:14:37.003Z,41.30
2024-03-19T17:17:29.108Z,37.90
2024-03-19T17:20:31.703Z,45.40
2024-03-19T17:23:22.696Z,42.20
2024-03-19T17:26:00.865Z,47.60
2024-03-19T17:28:39.579Z,42.40
2024-03-19T17:31:28.068Z,44.40
2024-03-19T17:34:10.501Z,40.40
2024-03-19T17:36:49.825Z,41.30
2024-03-19T17:39:27.463Z,41.60
2024-03-19T17:42:15.647Z,39.20
2024-03-19T17:44:58.550Z,39.70
2024-03-19T17:47:41.038Z,40.80
2024-03-19T17:50:24.895Z,43.70
2024-03-19T17:53:05.942Z,40.60
2024-03-19T17:55:46.020Z,40.00
2024-03-19T17:58:31.196Z,37.90
2024-03-19T18:01:12.964Z,40.60
2024-03-19T18:03:58.468Z,41.70
2024-03-19T18:06:38.131Z,46.10
2024-03-19T18:09:31.297Z,43.10
2024-03-19T18:12:19.008Z,43.20
2024-03-19T18:15:03.455Z,45.40
2024-03-19T18:17:52.876Z,43.30
2024-03-19T18:20:39.944Z,46.80
2024-03-19T18:23:21.124Z,40.80
2024-03-19T18:26:02.285Z,41.40
2024-03-19T18:28:56.868Z,43.50
2024-03-19T18:31:56.695Z,43.30
2024-03-19T18:34:55.406Z,45.10
2024-03-19T18:37:33.168Z,42.90
2024-03-19T18:40:17.524Z,40.90
2024-03-19T18:43:05.939Z,40.40
2024-03-19T18:45:46.189Z,41.50
2024-03-19T18:48:49.542Z,42.90
2024-03-19T18:51:45.921Z,40.20
2024-03-19T18:54:37.389Z,42.30
2024-03-19T18:57:35.879Z,44.60
2024-03-19T19:00:27.664Z,40.80
2024-03-19T19:03:08.800Z,41.50
2024-03-19T19:05:49.075Z,40.70
2024-03-19T19:08:40.481Z,45.80
2024-03-19T19:11:31.340Z,43.00
2024-03-19T19:14:34.935Z,41.80
2024-03-19T19:17:45.362Z,45.30
2024-03-19T19:20:47.362Z,48.10
2024-03-19T19:23:49.182Z,44.90
2024-03-19T19:26:52.540Z,49.60
2024-03-19T19:29:43.290Z,47.80
2024-03-19T19:32:27.306Z,45.30
2024-03-19T19:35:23.984Z,48.80
2024-03-19T19:38:17.690Z,49.30
2024-03-19T19:41:17.295Z,47.20
2024-03-19T19:44:09.612Z,47.30
2024-03-19T19:46:54.538Z,46.10
2024-03-19T19:49:47.261Z,49.30
2024-03-19T19:52:39.041Z,45.70
2024-03-19T19:55:35.878Z,48.70
2024-03-19T19:58:20.263Z,50.30
2024-03-19T20:01:10.821Z,54.00
2024-03-19T20:04:01.707Z,52.80
2024-03-19T20:06:52.965Z,49.60
2024-03-19T20:09:40.225Z,53.30
2024-03-19T20:12:20.600Z,47.00
2024-03-19T20:15:14.093Z,50.80
2024-03-19T20:18:00.869Z,49.70
2024-03-19T20:20:52.121Z,52.10
2024-03-19T20:23:46.340Z,51.30
2024-03-19T20:26:39.996Z,51.40
2024-03-19T20:29:25.929Z,53.30
2024-03-19T20:32:12.516Z,52.80
2024-03-19T20:35:07.040Z,52.80
2024-03-19T20:37:59.276Z,52.20
2024-03-19T20:40:47.031Z,54.30
2024-03-19T20:43:52.191Z,51.50
2024-03-19T20:46:58.862Z,48.20
2024-03-19T20:49:49.480Z,56.70
2024-03-19T20:52:46.803Z,50.60
2024-03-19T20:55:35.915Z,47.20
2024-03-19T20:58:30.862Z,54.20
2024-03-19T21:01:11.236Z,49.70
2024-03-19T21:03:57.339Z,52.50
2024-03-19T21:06:42.680Z,56.00
2024-03-19T21:09:36.444Z,49.30
2024-03-19T21:12:30.810Z,49.20
2024-03-19T21:15:14.411Z,50.60
2024-03-19T21:18:00.421Z,53.80
2024-03-19T21:20:40.613Z,54.70
2024-03-19T21:23:34.117Z,50.30
2024-03-19T21:26:20.527Z,51.50
2024-03-19T21:29:07.303Z,49.90
2024-03-19T21:32:00.513Z,54.50
2024-03-19T21:34:58.827Z,50.40
2024-03-19T21:37:40.190Z,49.30
2024-03-19T21:40:24.015Z,48.10
2024-03-19T21:43:16.273Z,48.30
2024-03-19T21:46:03.330Z,47.70
2024-03-19T21:48:48.046Z,52.80
2024-03-19T21:51:39.746Z,47.50
2024-03-19T21:54:30.678Z,45.50
2024-03-19T21:57:23.400Z,44.00
2024-03-19T22:00:28.606Z,48.20
2024-03-19T22:03:36.031Z,46.20
2024-03-19T22:06:28.651Z,46.80
2024-03-19T22:09:12.869Z,45.50
2024-03-19T22:11:57.062Z,41.10
2024-03-19T22:14:45.081Z,48.20
2024-03-19T22:17:45.967Z,42.40
2024-03-19T22:20:32.142Z,43.50
2024-03-19T22:23:19.237Z,42.40
2024-03-19T22:26:16.878Z,43.70
2024-03-19T22:29:07.434Z,42.20
2024-03-19T22:31:57.630Z,40.40
2024-03-19T22:34:40.537Z,40.60
2024-03-19T22:37:35.932Z,44.60
2024-03-19T22:40:18.548Z,45.10
2024-03-19T22:43:02.681Z,41.10
2024-03-19T22:45:46.840Z,44.10
2024-03-19T22:48:25.414Z,46.20
2024-03-19T22:51:02.961Z,44.40
2024-03-19T22:53:48.070Z,47.40
2024-03-19T22:56:25.297Z,44.00
2024-03-19T22:59:08.285Z,42.90
2024-03-19T23:01:45.827Z,46.70
2024-03-19T23:04:26.546Z,41.90
2024-03-19T23:07:04.422Z,39.50
2024-03-19T23:09:40.278Z,39.20
2024-03-19T23:12:18.955Z,44.90
2024-03-19T23:14:56.011Z,42.30
2024-03-19T23:17:32.788Z,39.70
2024-03-19T23:20:12.265Z,36.70
2024-03-19T23:22:51.479Z,36.90
2024-03-19T23:25:31.290Z,39.80
2024-03-19T23:28:08.381Z,38.90
2024-03-19T23:30:45.557Z,36.90
2024-03-19T23:33:23.585Z,38.00
2024-03-19T23:35:59.586Z,36.40
2024-03-19T23:38:35.873Z,34.10
2024-03-19T23:41:12.018Z,37.30
2024-03-19T23:43:48.749Z,39.10
2024-03-19T23:46:24.429Z,39.30
2024-03-19T23:49:00.993Z,34.40
2024-03-19T23:51:36.637Z,37.90
2024-03-19T23:54:13.300Z,38.00
2024-03-19T23:56:49.277Z,39.10
2024-03-19T23:59:29.801Z,36.70
